createdAt,value
2017-08-25T00:00:22.732Z,31.6
2017-08-25T00:01:20.686Z,31.6
2017-08-25T00:02:23.200Z,31.6
2017-08-25T00:03:18.211Z,31.6
2017-08-25T00:04:21.072Z,31.6
2017-08-25T00:05:18.278Z,31.6
2017-08-25T00:06:18.058Z,31.6
2017-08-25T00:07:23.404Z,31.6
2017-08-25T00:08:18.545Z,31.6
2017-08-25T00:09:18.562Z,31.6
2017-08-25T00:10:18.584Z,31.6
2017-08-25T00:11:21.123Z,31.6
2017-08-25T00:12:23.662Z,31.6
2017-08-25T00:13:21.526Z,31.6
2017-08-25T00:14:21.617Z,31.6
2017-08-25T00:15:23.703Z,31.6
2017-08-25T00:16:23.455Z,31.6
2017-08-25T00:17:18.545Z,31.6
2017-08-25T00:18:23.918Z,31.6
2017-08-25T00:19:21.851Z,31.6
2017-08-25T00:20:23.749Z,31.6
2017-08-25T00:21:22.032Z,31.6
2017-08-25T00:22:23.904Z,31.6
2017-08-25T00:23:24.265Z,31.6
2017-08-25T00:24:24.083Z,31.6
2017-08-25T00:25:19.490Z,31.6
2017-08-25T00:26:24.161Z,31.6
2017-08-25T00:27:22.015Z,31.6
2017-08-25T00:28:19.265Z,31.6
2017-08-25T00:29:19.342Z,31.6
2017-08-25T00:30:19.684Z,31.6
2017-08-25T00:31:19.705Z,31.6
2017-08-25T00:32:24.665Z,31.6
2017-08-25T00:33:24.720Z,31.6
2017-08-25T00:34:22.602Z,31.6
2017-08-25T00:35:24.789Z,31.6
2017-08-25T00:36:24.472Z,31.6
2017-08-25T00:37:19.852Z,31.6
2017-08-25T00:38:22.849Z,31.6
2017-08-25T00:39:19.667Z,31.6
2017-08-25T00:40:19.972Z,31.6
2017-08-25T00:41:24.730Z,31.6
2017-08-25T00:42:22.712Z,31.6
2017-08-25T00:43:23.111Z,31.6
2017-08-25T00:44:25.225Z,31.6
2017-08-25T00:45:19.920Z,31.6
2017-08-25T00:46:20.315Z,31.6
2017-08-25T00:47:23.543Z,31.6
2017-08-25T00:48:20.486Z,31.6
2017-08-25T00:49:25.480Z,31.6
2017-08-25T00:50:23.375Z,31.6
2017-08-25T00:51:25.567Z,31.6
2017-08-25T00:52:20.353Z,31.6
2017-08-25T00:53:25.727Z,31.6
2017-08-25T00:54:20.775Z,31.6
2017-08-25T00:55:23.305Z,31.6
2017-08-25T00:56:23.723Z,31.6
2017-08-25T00:57:23.745Z,31.6
2017-08-25T00:58:20.594Z,31.6
2017-08-25T00:59:25.575Z,31.6
2017-08-25T01:00:20.702Z,31.6
2017-08-25T01:01:26.002Z,31.6
2017-08-25T01:02:20.704Z,31.6
2017-08-25T01:03:26.021Z,31.6
2017-08-25T01:04:20.993Z,31.6
2017-08-25T01:05:25.754Z,31.6
2017-08-25T01:06:21.580Z,31.6
2017-08-25T01:07:21.211Z,31.6
2017-08-25T01:08:21.285Z,31.6
2017-08-25T01:09:21.037Z,31.6
2017-08-25T01:10:21.013Z,31.6
2017-08-25T01:11:21.110Z,31.6
2017-08-25T01:12:21.447Z,31.6
2017-08-25T01:13:21.534Z,31.6
2017-08-25T01:14:21.272Z,31.6
2017-08-25T01:15:21.649Z,31.6
2017-08-25T01:16:24.578Z,31.6
2017-08-25T01:17:21.712Z,31.6
2017-08-25T01:18:21.838Z,31.6
2017-08-25T01:19:21.797Z,31.6
2017-08-25T01:20:24.758Z,31.6
2017-08-25T01:21:22.010Z,31.6
2017-08-25T01:22:22.026Z,31.6
2017-08-25T01:23:22.116Z,31.6
2017-08-25T01:24:26.888Z,31.6
2017-08-25T01:25:27.229Z,31.6
2017-08-25T01:26:27.329Z,31.6
2017-08-25T01:27:22.202Z,31.6
2017-08-25T01:28:27.124Z,31.6
2017-08-25T01:29:25.077Z,31.6
2017-08-25T01:30:22.612Z,31.6
2017-08-25T01:31:25.155Z,31.6
2017-08-25T01:32:27.693Z,31.6
2017-08-25T01:33:22.500Z,31.6
2017-08-25T01:34:27.473Z,31.6
2017-08-25T01:35:25.359Z,31.6
2017-08-25T01:36:22.888Z,31.5
2017-08-25T01:37:27.891Z,31.6
2017-08-25T01:38:22.711Z,31.6
2017-08-25T01:39:25.595Z,31.6
2017-08-25T01:40:22.997Z,31.6
2017-08-25T01:41:28.033Z,31.6
2017-08-25T01:42:27.779Z,31.6
2017-08-25T01:43:27.877Z,31.6
2017-08-25T01:44:23.265Z,31.6
2017-08-25T01:45:28.323Z,31.6
2017-08-25T01:46:25.953Z,31.5
2017-08-25T01:47:28.436Z,31.5
2017-08-25T01:48:23.195Z,31.5
2017-08-25T01:49:23.581Z,31.6
2017-08-25T01:50:23.588Z,31.6
2017-08-25T01:51:28.255Z,31.6
2017-08-25T01:52:23.379Z,31.6
2017-08-25T01:53:23.670Z,31.6
2017-08-25T01:54:28.446Z,31.6
2017-08-25T01:55:28.851Z,31.5
2017-08-25T01:56:26.414Z,31.6
2017-08-25T01:57:23.933Z,31.5
2017-08-25T01:58:23.981Z,31.5
2017-08-25T01:59:23.685Z,31.5
2017-08-25T02:00:24.087Z,31.5
2017-08-25T02:01:26.992Z,31.5
2017-08-25T02:02:23.924Z,31.5
2017-08-25T02:03:24.284Z,31.5
2017-08-25T02:04:24.336Z,31.6
2017-08-25T02:05:27.320Z,31.5
2017-08-25T02:06:24.410Z,31.6
2017-08-25T02:07:26.958Z,31.5
2017-08-25T02:08:29.530Z,31.5
2017-08-25T02:09:24.524Z,31.5
2017-08-25T02:10:27.228Z,31.5
2017-08-25T02:11:27.507Z,31.5
2017-08-25T02:12:24.816Z,31.5
2017-08-25T02:13:27.575Z,31.5
2017-08-25T02:14:29.395Z,31.5
2017-08-25T02:15:24.827Z,31.5
2017-08-25T02:16:24.822Z,31.5
2017-08-25T02:17:31.140Z,31.5
2017-08-25T02:18:27.835Z,31.5
2017-08-25T02:19:27.560Z,31.5
2017-08-25T02:20:30.488Z,31.5
2017-08-25T02:21:30.548Z,31.5
2017-08-25T02:22:30.099Z,31.5
2017-08-25T02:23:24.710Z,31.5
2017-08-25T02:24:30.009Z,31.5
2017-08-25T02:25:25.178Z,31.5
2017-08-25T02:26:24.925Z,31.5
2017-08-25T02:27:24.896Z,31.5
2017-08-25T02:28:28.916Z,31.5
2017-08-25T02:29:25.035Z,31.5
2017-08-25T02:30:25.562Z,31.5
2017-08-25T02:31:25.375Z,31.5
2017-08-25T02:32:25.285Z,31.5
2017-08-25T02:33:25.892Z,31.5
2017-08-25T02:34:25.706Z,31.5
2017-08-25T02:35:28.308Z,31.5
2017-08-25T02:36:25.888Z,31.5
2017-08-25T02:37:26.359Z,31.5
2017-08-25T02:38:25.851Z,31.5
2017-08-25T02:39:25.753Z,31.5
2017-08-25T02:40:25.634Z,31.5
2017-08-25T02:41:26.186Z,31.5
2017-08-25T02:42:25.879Z,31.5
2017-08-25T02:43:25.692Z,31.5
2017-08-25T02:44:26.170Z,31.5
2017-08-25T02:45:26.113Z,31.5
2017-08-25T02:46:25.933Z,31.5
2017-08-25T02:47:26.718Z,31.5
2017-08-25T02:48:26.744Z,31.5
2017-08-25T02:49:31.295Z,31.5
2017-08-25T02:50:31.667Z,31.5
2017-08-25T02:51:29.516Z,31.5
2017-08-25T02:52:27.713Z,31.5
2017-08-25T02:53:33.235Z,31.5
2017-08-25T02:54:27.542Z,31.5
2017-08-25T02:55:27.888Z,31.5
2017-08-25T02:56:33.048Z,31.5
2017-08-25T02:57:32.746Z,31.5
2017-08-25T02:58:30.668Z,31.5
2017-08-25T02:59:29.980Z,31.5
2017-08-25T03:00:29.992Z,31.5
2017-08-25T03:01:27.724Z,31.5
2017-08-25T03:02:33.475Z,31.5
2017-08-25T03:03:30.503Z,31.5
2017-08-25T03:04:31.750Z,31.5
2017-08-25T03:05:32.471Z,31.5
2017-08-25T03:06:26.909Z,31.5
2017-08-25T03:07:27.929Z,31.5
2017-08-25T03:08:32.828Z,31.5
2017-08-25T03:09:29.381Z,31.5
2017-08-25T03:10:31.677Z,31.5
2017-08-25T03:11:29.096Z,31.4
2017-08-25T03:12:31.358Z,31.4
2017-08-25T03:13:29.822Z,31.5
2017-08-25T03:14:27.372Z,31.5
2017-08-25T03:15:30.430Z,31.5
2017-08-25T03:16:32.271Z,31.4
2017-08-25T03:17:32.367Z,31.5
2017-08-25T03:18:27.635Z,31.5
2017-08-25T03:19:32.497Z,31.5
2017-08-25T03:20:33.004Z,31.5
2017-08-25T03:21:32.280Z,31.4
2017-08-25T03:22:33.243Z,31.4
2017-08-25T03:23:33.380Z,31.5
2017-08-25T03:24:28.385Z,31.4
2017-08-25T03:25:30.684Z,31.5
2017-08-25T03:26:27.841Z,31.4
2017-08-25T03:27:27.910Z,31.5
2017-08-25T03:28:32.896Z,31.5
2017-08-25T03:29:32.935Z,31.4
2017-08-25T03:30:28.168Z,31.5
2017-08-25T03:31:28.401Z,31.5
2017-08-25T03:32:28.407Z,31.5
2017-08-25T03:33:33.454Z,31.5
2017-08-25T03:34:31.341Z,31.5
2017-08-25T03:35:31.428Z,31.4
2017-08-25T03:36:28.536Z,31.5
2017-08-25T03:37:33.697Z,31.5
2017-08-25T03:38:28.509Z,31.5
2017-08-25T03:39:28.813Z,31.5
2017-08-25T03:40:28.853Z,31.5
2017-08-25T03:41:28.835Z,31.4
2017-08-25T03:42:28.847Z,31.5
2017-08-25T03:43:33.900Z,31.4
2017-08-25T03:44:44.964Z,31.5
2017-08-25T03:45:44.949Z,31.4
2017-08-25T03:46:44.618Z,31.4
2017-08-25T03:47:48.037Z,31.4
2017-08-25T03:48:47.921Z,31.4
2017-08-25T03:49:48.074Z,31.4
2017-08-25T03:50:44.947Z,31.4
2017-08-25T03:51:48.123Z,31.4
2017-08-25T03:52:45.183Z,31.4
2017-08-25T03:53:47.953Z,31.4
2017-08-25T03:54:45.151Z,31.4
2017-08-25T03:55:50.502Z,31.4
2017-08-25T03:56:50.602Z,31.4
2017-08-25T03:57:45.624Z,31.4
2017-08-25T03:58:48.409Z,31.4
2017-08-25T03:59:48.293Z,31.4
2017-08-25T04:00:45.456Z,31.4
2017-08-25T04:01:48.733Z,31.4
2017-08-25T04:02:45.926Z,31.4
2017-08-25T04:03:45.969Z,31.4
2017-08-25T04:04:51.111Z,31.4
2017-08-25T04:05:46.086Z,31.4
2017-08-25T04:06:46.147Z,31.4
2017-08-25T04:07:48.981Z,31.4
2017-08-25T04:08:46.132Z,31.4
2017-08-25T04:09:46.231Z,31.4
2017-08-25T04:10:51.454Z,31.4
2017-08-25T04:11:49.239Z,31.4
2017-08-25T04:12:51.115Z,31.4
2017-08-25T04:13:46.217Z,31.4
2017-08-25T04:14:46.210Z,31.4
2017-08-25T04:15:49.168Z,31.4
2017-08-25T04:16:51.540Z,31.4
2017-08-25T04:17:49.626Z,31.4
2017-08-25T04:18:51.847Z,31.4
2017-08-25T04:19:51.653Z,31.4
2017-08-25T04:20:46.576Z,31.4
2017-08-25T04:21:46.658Z,31.4
2017-08-25T04:22:51.895Z,31.4
2017-08-25T04:23:46.776Z,31.4
2017-08-25T04:24:51.847Z,31.4
2017-08-25T04:25:46.904Z,31.4
2017-08-25T04:26:50.147Z,31.4
2017-08-25T04:27:49.840Z,31.4
2017-08-25T04:28:50.199Z,31.4
2017-08-25T04:29:52.401Z,31.4
2017-08-25T04:30:50.295Z,31.4
2017-08-25T04:31:50.045Z,31.4
2017-08-25T04:32:52.535Z,31.4
2017-08-25T04:33:50.496Z,31.3
2017-08-25T04:34:47.685Z,31.2
2017-08-25T04:35:47.434Z,31
2017-08-25T04:36:52.787Z,30.9
2017-08-25T04:37:47.905Z,30.7
2017-08-25T04:38:47.920Z,30.5
2017-08-25T04:39:50.556Z,30.4
2017-08-25T04:40:51.295Z,30.3
2017-08-25T04:41:47.820Z,30.1
2017-08-25T04:42:53.308Z,30
2017-08-25T04:43:48.291Z,30
2017-08-25T04:44:53.453Z,29.9
2017-08-25T04:45:49.661Z,29.8
2017-08-25T04:46:52.337Z,29.7
2017-08-25T04:47:56.326Z,29.6
2017-08-25T04:48:50.595Z,29.6
2017-08-25T04:49:50.047Z,29.5
2017-08-25T04:50:51.648Z,29.4
2017-08-25T04:51:48.736Z,29.4
2017-08-25T04:52:52.616Z,29.3
2017-08-25T04:53:53.885Z,29.3
2017-08-25T04:54:51.534Z,29.2
2017-08-25T04:55:54.773Z,29.2
2017-08-25T04:56:48.738Z,29.1
2017-08-25T04:57:49.106Z,29.1
2017-08-25T04:58:53.377Z,29.1
2017-08-25T04:59:48.953Z,29.1
2017-08-25T05:01:00.426Z,29
2017-08-25T05:01:54.287Z,29
2017-08-25T05:02:49.085Z,29
2017-08-25T05:03:49.417Z,29
2017-08-25T05:04:54.751Z,29
2017-08-25T05:05:55.272Z,29
2017-08-25T05:06:55.165Z,29
2017-08-25T05:07:50.393Z,29
2017-08-25T05:08:56.162Z,29.1
2017-08-25T05:09:56.888Z,29.1
2017-08-25T05:10:57.136Z,29
2017-08-25T05:11:55.273Z,29
2017-08-25T05:12:55.875Z,29
2017-08-25T05:13:53.558Z,29
2017-08-25T05:14:57.575Z,29
2017-08-25T05:15:55.884Z,29
2017-08-25T05:16:59.724Z,29
2017-08-25T05:17:50.522Z,29
2017-08-25T05:18:55.226Z,29
2017-08-25T05:19:53.145Z,29
2017-08-25T05:20:52.732Z,29
2017-08-25T05:21:53.961Z,29
2017-08-25T05:22:50.373Z,29
2017-08-25T05:23:53.313Z,29
2017-08-25T05:24:56.568Z,29
2017-08-25T05:25:50.849Z,29
2017-08-25T05:26:53.825Z,29
2017-08-25T05:27:50.974Z,29
2017-08-25T05:28:51.146Z,29
2017-08-25T05:29:56.321Z,29
2017-08-25T05:30:56.753Z,29
2017-08-25T05:31:53.735Z,29
2017-08-25T05:32:50.934Z,29
2017-08-25T05:33:52.668Z,29
2017-08-25T05:34:55.092Z,29
2017-08-25T05:35:55.905Z,29
2017-08-25T05:36:53.867Z,29
2017-08-25T05:37:51.382Z,29
2017-08-25T05:38:56.397Z,29
2017-08-25T05:39:54.121Z,29
2017-08-25T05:40:54.011Z,29
2017-08-25T05:41:52.172Z,29
2017-08-25T05:42:52.092Z,29
2017-08-25T05:43:51.376Z,29
2017-08-25T05:44:54.600Z,29
2017-08-25T05:45:51.640Z,29
2017-08-25T05:46:56.888Z,29
2017-08-25T05:47:54.531Z,29
2017-08-25T05:48:57.090Z,29
2017-08-25T05:49:55.000Z,29.1
2017-08-25T05:50:51.894Z,29.1
2017-08-25T05:51:59.092Z,29.1
2017-08-25T05:52:52.232Z,29.1
2017-08-25T05:53:55.175Z,29.1
2017-08-25T05:54:52.422Z,29.1
2017-08-25T05:55:57.108Z,29.1
2017-08-25T05:56:55.393Z,29.2
2017-08-25T05:57:52.398Z,29.2
2017-08-25T05:58:57.627Z,29.2
2017-08-25T05:59:57.650Z,29.2
2017-08-25T06:00:53.062Z,29.2
2017-08-25T06:01:52.411Z,29.2
2017-08-25T06:02:52.518Z,29.2
2017-08-25T06:03:55.560Z,29.2
2017-08-25T06:04:55.802Z,29.2
2017-08-25T06:05:55.789Z,29.2
2017-08-25T06:06:52.717Z,29.3
2017-08-25T06:07:58.153Z,29.3
2017-08-25T06:08:52.860Z,29.3
2017-08-25T06:09:53.449Z,29.3
2017-08-25T06:10:57.951Z,29.3
2017-08-25T06:11:53.020Z,29.3
2017-08-25T06:12:55.069Z,29.3
2017-08-25T06:13:53.291Z,29.3
2017-08-25T06:14:52.991Z,29.3
2017-08-25T06:15:56.508Z,29.3
2017-08-25T06:16:56.347Z,29.3
2017-08-25T06:17:56.420Z,29.3
2017-08-25T06:18:54.108Z,29.3
2017-08-25T06:19:58.590Z,29.3
2017-08-25T06:20:53.650Z,29.3
2017-08-25T06:21:56.812Z,29.3
2017-08-25T06:22:59.045Z,29.3
2017-08-25T06:23:53.475Z,29.3
2017-08-25T06:24:56.663Z,29.3
2017-08-25T06:25:53.940Z,29.2
2017-08-25T06:26:53.606Z,29.2
2017-08-25T06:27:59.012Z,29.2
2017-08-25T06:28:56.742Z,29.2
2017-08-25T06:29:54.218Z,29.2
2017-08-25T06:30:58.941Z,29.2
2017-08-25T06:31:56.979Z,29.2
2017-08-25T06:32:58.852Z,29.2
2017-08-25T06:33:59.095Z,29.2
2017-08-25T06:34:56.820Z,29.2
2017-08-25T06:35:54.244Z,29.3
2017-08-25T06:36:54.534Z,29.3
2017-08-25T06:37:54.063Z,29.3
2017-08-25T06:38:59.036Z,29.3
2017-08-25T06:39:54.608Z,29.3
2017-08-25T06:40:54.454Z,29.3
2017-08-25T06:41:57.192Z,29.3
2017-08-25T06:42:54.654Z,29.3
2017-08-25T06:43:54.344Z,29.3
2017-08-25T06:44:57.322Z,29.2
2017-08-25T06:45:59.978Z,29.2
2017-08-25T06:46:59.508Z,29.3
2017-08-25T06:47:54.892Z,29.3
2017-08-25T06:49:00.341Z,29.3
2017-08-25T06:49:58.599Z,29.3
2017-08-25T06:50:58.675Z,29.3
2017-08-25T06:51:57.905Z,29.3
2017-08-25T06:52:55.187Z,29.3
2017-08-25T06:54:01.438Z,29.3
2017-08-25T06:54:57.921Z,29.3
2017-08-25T06:55:57.907Z,29.3
2017-08-25T06:56:55.482Z,29.4
2017-08-25T06:57:55.363Z,29.4
2017-08-25T06:58:55.429Z,29.4
2017-08-25T06:59:55.553Z,29.4
2017-08-25T07:00:55.190Z,29.4
2017-08-25T07:01:59.653Z,29.4
2017-08-25T07:02:58.462Z,29.4
2017-08-25T07:03:55.453Z,29.4
2017-08-25T07:04:55.700Z,29.5
2017-08-25T07:06:00.410Z,29.5
2017-08-25T07:06:58.378Z,29.5
2017-08-25T07:07:57.153Z,29.6
2017-08-25T07:08:55.636Z,29.6
2017-08-25T07:09:59.079Z,29.7
2017-08-25T07:10:58.920Z,29.7
2017-08-25T07:11:56.765Z,29.8
2017-08-25T07:13:01.101Z,29.8
2017-08-25T07:13:59.023Z,29.8
2017-08-25T07:14:58.719Z,29.8
2017-08-25T07:15:56.134Z,29.9
2017-08-25T07:17:01.320Z,29.9
2017-08-25T07:17:58.884Z,29.9
2017-08-25T07:19:00.992Z,29.9
2017-08-25T07:19:59.042Z,29.9
2017-08-25T07:20:56.805Z,30
2017-08-25T07:21:59.952Z,30
2017-08-25T07:23:01.576Z,30.1
2017-08-25T07:23:59.293Z,30.1
2017-08-25T07:24:57.431Z,30.1
2017-08-25T07:25:57.328Z,30.2
2017-08-25T07:26:56.565Z,30.2
2017-08-25T07:28:01.856Z,30.2
2017-08-25T07:28:56.936Z,30.2
2017-08-25T07:29:59.606Z,30.2
2017-08-25T07:30:58.501Z,30.2
2017-08-25T07:32:04.055Z,30.3
2017-08-25T07:33:05.215Z,30.3
2017-08-25T07:34:00.107Z,30.3
2017-08-25T07:35:01.976Z,30.4
2017-08-25T07:35:57.296Z,30.4
2017-08-25T07:36:57.525Z,30.4
2017-08-25T07:37:57.189Z,30.4
2017-08-25T07:39:02.333Z,30.4
2017-08-25T07:40:00.396Z,30.4
2017-08-25T07:41:00.094Z,30.4
2017-08-25T07:41:58.472Z,30.5
2017-08-25T07:42:57.333Z,30.6
2017-08-25T07:43:58.351Z,30.7
2017-08-25T07:45:16.043Z,30.7
2017-08-25T07:45:57.455Z,30.8
2017-08-25T07:47:00.380Z,30.8
2017-08-25T07:48:00.451Z,30.9
2017-08-25T07:48:58.072Z,31
2017-08-25T07:49:58.048Z,31.1
2017-08-25T07:50:58.231Z,31.2
2017-08-25T07:51:58.073Z,31.2
2017-08-25T07:52:58.342Z,31.3
2017-08-25T07:53:58.275Z,31.3
2017-08-25T07:55:05.010Z,31.3
2017-08-25T07:56:07.454Z,31.2
2017-08-25T07:56:58.248Z,31.2
2017-08-25T07:57:58.951Z,31.2
2017-08-25T07:58:59.183Z,31.1
2017-08-25T08:00:03.315Z,31.1
2017-08-25T08:01:04.045Z,31.1
2017-08-25T08:02:03.338Z,31.1
2017-08-25T08:03:01.738Z,31.1
2017-08-25T08:03:59.173Z,31.1
2017-08-25T08:05:04.392Z,31.1
2017-08-25T08:06:03.821Z,31.2
2017-08-25T08:07:08.691Z,31.2
2017-08-25T08:08:01.502Z,31.2
2017-08-25T08:09:04.515Z,31.3
2017-08-25T08:09:59.323Z,31.3
2017-08-25T08:10:58.801Z,31.3
2017-08-25T08:12:02.098Z,31.3
2017-08-25T08:13:03.989Z,31.3
2017-08-25T08:14:03.954Z,31.2
2017-08-25T08:15:04.934Z,31.2
2017-08-25T08:16:02.011Z,31.3
2017-08-25T08:16:59.720Z,31.3
2017-08-25T08:18:05.638Z,31.3
2017-08-25T08:18:59.286Z,31.3
2017-08-25T08:20:03.083Z,31.3
2017-08-25T08:21:02.519Z,31.3
2017-08-25T08:21:59.416Z,31.3
2017-08-25T08:23:04.378Z,31.3
2017-08-25T08:24:03.559Z,31.4
2017-08-25T08:24:59.622Z,31.4
2017-08-25T08:25:59.561Z,31.4
2017-08-25T08:27:03.550Z,31.4
2017-08-25T08:28:01.939Z,31.4
2017-08-25T08:29:04.456Z,31.4
2017-08-25T08:30:05.699Z,31.5
2017-08-25T08:31:00.189Z,31.6
2017-08-25T08:32:00.286Z,31.6
2017-08-25T08:33:02.961Z,31.6
2017-08-25T08:34:02.829Z,31.6
2017-08-25T08:35:00.955Z,31.6
2017-08-25T08:36:06.523Z,31.7
2017-08-25T08:37:03.648Z,31.7
2017-08-25T08:38:05.865Z,31.7
2017-08-25T08:39:05.745Z,31.7
2017-08-25T08:40:07.718Z,31.6
2017-08-25T08:41:08.235Z,31.6
2017-08-25T08:42:07.425Z,31.7
2017-08-25T08:43:04.140Z,31.6
2017-08-25T08:44:02.144Z,31.6
2017-08-25T08:45:06.774Z,31.7
2017-08-25T08:46:03.855Z,31.7
2017-08-25T08:47:05.426Z,31.7
2017-08-25T08:48:08.666Z,31.7
2017-08-25T08:49:02.624Z,31.7
2017-08-25T08:50:04.325Z,31.7
2017-08-25T08:51:01.186Z,31.7
2017-08-25T08:52:02.513Z,31.6
2017-08-25T08:53:01.297Z,31.7
2017-08-25T08:54:04.466Z,31.7
2017-08-25T08:55:01.016Z,31.7
2017-08-25T08:56:02.944Z,31.8
2017-08-25T08:57:01.098Z,31.8
2017-08-25T08:58:01.096Z,31.8
2017-08-25T08:59:06.388Z,31.8
2017-08-25T09:00:07.827Z,31.8
2017-08-25T09:01:02.489Z,31.8
2017-08-25T09:02:07.057Z,31.8
2017-08-25T09:03:06.769Z,31.8
2017-08-25T09:04:01.620Z,31.7
2017-08-25T09:05:03.463Z,31.7
2017-08-25T09:06:03.187Z,31.6
2017-08-25T09:07:01.640Z,31.6
2017-08-25T09:08:05.458Z,31.7
2017-08-25T09:09:02.467Z,31.7
2017-08-25T09:10:04.857Z,31.7
2017-08-25T09:11:02.204Z,31.6
2017-08-25T09:12:07.143Z,31.7
2017-08-25T09:13:05.282Z,31.6
2017-08-25T09:14:04.781Z,31.6
2017-08-25T09:15:04.971Z,31.6
2017-08-25T09:16:02.537Z,31.6
2017-08-25T09:17:09.012Z,31.7
2017-08-25T09:18:06.193Z,31.6
2017-08-25T09:19:03.798Z,31.6
2017-08-25T09:20:07.245Z,31.7
2017-08-25T09:21:05.580Z,31.7
2017-08-25T09:22:05.222Z,31.6
2017-08-25T09:23:02.830Z,31.6
2017-08-25T09:24:06.315Z,31.6
2017-08-25T09:25:06.235Z,31.6
2017-08-25T09:26:02.967Z,31.7
2017-08-25T09:27:04.542Z,31.7
2017-08-25T09:28:06.318Z,31.7
2017-08-25T09:29:03.005Z,31.7
2017-08-25T09:30:09.142Z,31.7
2017-08-25T09:31:08.136Z,31.7
2017-08-25T09:32:03.849Z,31.7
2017-08-25T09:33:06.416Z,31.7
2017-08-25T09:34:07.959Z,31.7
2017-08-25T09:35:07.970Z,31.7
2017-08-25T09:36:03.374Z,31.7
2017-08-25T09:37:06.240Z,31.7
2017-08-25T09:38:06.063Z,31.7
2017-08-25T09:39:08.981Z,31.7
2017-08-25T09:40:06.459Z,31.7
2017-08-25T09:41:03.640Z,31.7
2017-08-25T09:42:06.904Z,31.7
2017-08-25T09:43:03.737Z,31.7
2017-08-25T09:44:04.438Z,31.7
2017-08-25T09:45:04.097Z,31.7
2017-08-25T09:46:06.781Z,31.7
2017-08-25T09:47:03.698Z,31.7
2017-08-25T09:48:03.986Z,31.7
2017-08-25T09:49:06.692Z,31.7
2017-08-25T09:50:09.313Z,31.7
2017-08-25T09:51:10.672Z,31.7
2017-08-25T09:52:04.207Z,31.7
2017-08-25T09:53:09.348Z,31.8
2017-08-25T09:54:11.000Z,31.7
2017-08-25T09:55:10.995Z,31.8
2017-08-25T09:56:07.967Z,31.8
2017-08-25T09:57:05.165Z,31.8
2017-08-25T09:58:07.457Z,31.7
2017-08-25T09:59:05.838Z,31.7
2017-08-25T10:00:07.643Z,31.8
2017-08-25T10:01:07.363Z,31.7
2017-08-25T10:02:04.573Z,31.7
2017-08-25T10:03:05.132Z,31.8
2017-08-25T10:04:04.961Z,31.8
2017-08-25T10:05:09.071Z,31.8
2017-08-25T10:06:07.601Z,31.8
2017-08-25T10:07:05.024Z,31.8
2017-08-25T10:08:05.392Z,31.8
2017-08-25T10:09:09.459Z,31.8
2017-08-25T10:10:08.176Z,31.8
2017-08-25T10:11:06.653Z,31.8
2017-08-25T10:12:09.185Z,31.8
2017-08-25T10:13:10.473Z,31.8
2017-08-25T10:14:10.582Z,31.9
2017-08-25T10:15:06.246Z,31.9
2017-08-25T10:16:06.286Z,31.9
2017-08-25T10:17:11.307Z,31.9
2017-08-25T10:18:05.681Z,31.9
2017-08-25T10:19:10.488Z,31.9
2017-08-25T10:20:10.470Z,31.9
2017-08-25T10:21:05.866Z,31.9
2017-08-25T10:22:08.919Z,31.9
2017-08-25T10:23:09.002Z,31.9
2017-08-25T10:24:09.091Z,31.9
2017-08-25T10:25:09.417Z,31.9
2017-08-25T10:26:05.977Z,32
2017-08-25T10:27:08.350Z,32
2017-08-25T10:28:09.047Z,32
2017-08-25T10:29:06.786Z,32
2017-08-25T10:30:06.260Z,32
2017-08-25T10:31:08.279Z,32
2017-08-25T10:32:06.972Z,32
2017-08-25T10:33:06.344Z,32
2017-08-25T10:34:11.629Z,32
2017-08-25T10:35:07.004Z,32
2017-08-25T10:36:10.319Z,32
2017-08-25T10:37:06.807Z,32
2017-08-25T10:38:10.852Z,32
2017-08-25T10:39:12.241Z,32
2017-08-25T10:40:13.042Z,32
2017-08-25T10:41:10.119Z,32
2017-08-25T10:42:12.352Z,32
2017-08-25T10:43:07.065Z,32
2017-08-25T10:44:07.831Z,32
2017-08-25T10:45:11.689Z,32
2017-08-25T10:46:09.792Z,32
2017-08-25T10:47:13.447Z,32
2017-08-25T10:48:09.212Z,32
2017-08-25T10:49:13.164Z,32
2017-08-25T10:50:13.875Z,32
2017-08-25T10:51:08.277Z,32
2017-08-25T10:52:07.590Z,32
2017-08-25T10:53:12.649Z,32
2017-08-25T10:54:12.790Z,32
2017-08-25T10:55:12.464Z,32
2017-08-25T10:56:10.721Z,32.1
2017-08-25T10:57:12.685Z,32.1
2017-08-25T10:58:08.061Z,32.1
2017-08-25T10:59:08.080Z,32
2017-08-25T11:00:11.125Z,32.1
2017-08-25T11:01:11.046Z,32.1
2017-08-25T11:02:11.467Z,32.1
2017-08-25T11:03:11.216Z,32.1
2017-08-25T11:04:08.064Z,32.1
2017-08-25T11:05:08.522Z,32.1
2017-08-25T11:06:09.202Z,32.1
2017-08-25T11:07:11.960Z,32.1
2017-08-25T11:08:13.192Z,32.1
2017-08-25T11:09:08.575Z,32.1
2017-08-25T11:10:12.263Z,32.1
2017-08-25T11:11:09.874Z,32.1
2017-08-25T11:12:08.749Z,32.1
2017-08-25T11:13:08.463Z,32.1
2017-08-25T11:14:13.524Z,32
2017-08-25T11:15:09.507Z,32
2017-08-25T11:16:14.612Z,32.1
2017-08-25T11:17:11.766Z,32.1
2017-08-25T11:18:08.814Z,32.1
2017-08-25T11:19:09.842Z,32.1
2017-08-25T11:20:11.744Z,32.1
2017-08-25T11:21:12.142Z,32.1
2017-08-25T11:22:14.685Z,32.1
2017-08-25T11:23:14.169Z,32.1
2017-08-25T11:24:09.711Z,32.1
2017-08-25T11:25:09.170Z,32.1
2017-08-25T11:26:10.827Z,32.2
2017-08-25T11:27:09.521Z,32.1
2017-08-25T11:28:09.247Z,32.1
2017-08-25T11:29:12.351Z,32.1
2017-08-25T11:30:10.066Z,32.1
2017-08-25T11:31:14.415Z,32.1
2017-08-25T11:32:09.519Z,32.1
2017-08-25T11:33:14.867Z,32.1
2017-08-25T11:34:14.837Z,32.2
2017-08-25T11:35:10.156Z,32.2
2017-08-25T11:36:09.660Z,32.2
2017-08-25T11:37:11.664Z,32.1
2017-08-25T11:38:15.164Z,32.1
2017-08-25T11:39:11.517Z,32.1
2017-08-25T11:40:13.019Z,32.1
2017-08-25T11:41:15.390Z,32.1
2017-08-25T11:42:15.835Z,32.1
2017-08-25T11:43:10.527Z,32.1
2017-08-25T11:44:14.812Z,32
2017-08-25T11:45:11.320Z,32.1
2017-08-25T11:46:16.206Z,32.1
2017-08-25T11:47:10.869Z,32.1
2017-08-25T11:48:15.799Z,32.2
2017-08-25T11:49:13.961Z,32.2
2017-08-25T11:50:11.134Z,32.2
2017-08-25T11:51:13.316Z,32.2
2017-08-25T11:52:14.272Z,32.2
2017-08-25T11:53:11.108Z,32.2
2017-08-25T11:54:13.256Z,32.2
2017-08-25T11:55:10.397Z,32.2
2017-08-25T11:56:10.493Z,32.2
2017-08-25T11:57:13.504Z,32.2
2017-08-25T11:58:15.173Z,32.2
2017-08-25T11:59:16.989Z,32.2
2017-08-25T12:00:10.726Z,32.2
2017-08-25T12:01:11.890Z,32.2
2017-08-25T12:02:16.582Z,32.2
2017-08-25T12:03:14.604Z,32.2
2017-08-25T12:04:16.971Z,32.2
2017-08-25T12:05:11.245Z,32.2
2017-08-25T12:06:11.890Z,32.2
2017-08-25T12:07:12.621Z,32.3
2017-08-25T12:08:12.220Z,32.3
2017-08-25T12:09:12.146Z,32.3
2017-08-25T12:10:11.822Z,32.3
2017-08-25T12:11:12.239Z,32.3
2017-08-25T12:12:16.543Z,32.3
2017-08-25T12:13:15.045Z,32.3
2017-08-25T12:14:17.367Z,32.3
2017-08-25T12:15:11.632Z,32.3
2017-08-25T12:16:18.402Z,32.3
2017-08-25T12:17:11.942Z,32.3
2017-08-25T12:18:12.829Z,32.3
2017-08-25T12:19:17.410Z,32.2
2017-08-25T12:20:22.106Z,32.2
2017-08-25T12:21:18.151Z,32.2
2017-08-25T12:22:15.682Z,32.2
2017-08-25T12:23:14.528Z,32.2
2017-08-25T12:24:16.958Z,32.2
2017-08-25T12:25:17.132Z,32.2
2017-08-25T12:26:15.063Z,32.2
2017-08-25T12:27:15.395Z,32.2
2017-08-25T12:28:15.048Z,32.2
2017-08-25T12:29:12.130Z,32.2
2017-08-25T12:30:15.382Z,32.2
2017-08-25T12:31:12.228Z,32.2
2017-08-25T12:32:14.023Z,32.2
2017-08-25T12:33:13.884Z,32.2
2017-08-25T12:34:12.653Z,32.2
2017-08-25T12:35:16.005Z,32.2
2017-08-25T12:36:13.159Z,32.2
2017-08-25T12:37:18.829Z,32.2
2017-08-25T12:38:17.509Z,32.2
2017-08-25T12:39:19.209Z,32.2
2017-08-25T12:40:16.021Z,32.2
2017-08-25T12:41:13.081Z,32.2
2017-08-25T12:42:13.141Z,32.2
2017-08-25T12:43:13.555Z,32.2
2017-08-25T12:44:12.989Z,32.2
2017-08-25T12:45:19.758Z,32.2
2017-08-25T12:46:13.440Z,32.2
2017-08-25T12:47:16.467Z,32.2
2017-08-25T12:48:13.630Z,32.2
2017-08-25T12:49:19.446Z,32.2
2017-08-25T12:50:15.709Z,32.3
2017-08-25T12:51:20.366Z,32.2
2017-08-25T12:52:14.564Z,32.2
2017-08-25T12:53:17.016Z,32.2
2017-08-25T12:54:14.016Z,32.2
2017-08-25T12:55:13.765Z,32.2
2017-08-25T12:56:19.053Z,32.2
2017-08-25T12:57:19.257Z,32.3
2017-08-25T12:58:14.176Z,32.3
2017-08-25T12:59:17.067Z,32.3
2017-08-25T13:00:14.224Z,32.3
2017-08-25T13:01:17.562Z,32.3
2017-08-25T13:02:17.220Z,32.3
2017-08-25T13:03:14.238Z,32.2
2017-08-25T13:04:14.442Z,32.3
2017-08-25T13:05:14.254Z,32.3
2017-08-25T13:06:17.195Z,32.3
2017-08-25T13:07:15.028Z,32.3
2017-08-25T13:08:15.327Z,32.3
2017-08-25T13:09:15.626Z,32.3
2017-08-25T13:10:14.943Z,32.3
2017-08-25T13:11:15.229Z,32.3
2017-08-25T13:12:15.256Z,32.3
2017-08-25T13:13:19.724Z,32.3
2017-08-25T13:14:15.044Z,32.3
2017-08-25T13:15:18.146Z,32.3
2017-08-25T13:16:18.417Z,32.3
2017-08-25T13:17:14.876Z,32.3
2017-08-25T13:18:20.294Z,32.3
2017-08-25T13:19:16.307Z,32.3
2017-08-25T13:20:20.085Z,32.3
2017-08-25T13:21:15.422Z,32.3
2017-08-25T13:22:15.408Z,32.3
2017-08-25T13:23:18.319Z,32.3
2017-08-25T13:24:18.362Z,32.3
2017-08-25T13:25:16.811Z,32.3